sensor_id;sensor_type;location;lat;lon;timestamp;pressure;altitude;pressure_sealevel;temperature;humidity
10071;BME280;5074;53.720;10.014;2022-12-11T00:00:52;100860.78;;;-3.38;100.00
10071;BME280;5074;53.720;10.014;2022-12-11T00:03:20;100869.47;;;-3.39;100.00
10071;BME280;5074;53.720;10.014;2022-12-11T00:05:49;100859.84;;;-3.40;100.00
10071;BME280;5074;53.720;10.014;2022-12-11T00:08:16;100866.84;;;-3.39;100.00
10071;BME280;5074;53.720;10.014;2022-12-11T00:10:47;100859.75;;;-3.44;100.00
10071;BME280;5074;53.720;10.014;2022-12-11T00:13:15;100857.97;;;-3.45;100.00
10071;BME280;5074;53.720;10.014;2022-12-11T00:15:45;100858.91;;;-3.43;100.00
10071;BME280;5074;53.720;10.014;2022-12-11T00:18:13;100852.72;;;-3.47;100.00
10071;BME280;5074;53.720;10.014;2022-12-11T00:20:41;100854.31;;;-3.54;100.00
10071;BME280;5074;53.720;10.014;2022-12-11T00:23:09;100843.59;;;-3.64;100.00
10071;BME280;5074;53.720;10.014;2022-12-11T00:25:40;100848.84;;;-3.63;100.00
10071;BME280;5074;53.720;10.014;2022-12-11T00:28:09;100836.59;;;-3.66;100.00
10071;BME280;5074;53.720;10.014;2022-12-11T00:30:38;100843.59;;;-3.64;100.00
10071;BME280;5074;53.720;10.014;2022-12-11T00:33:09;100839.16;;;-3.67;100.00
10071;BME280;5074;53.720;10.014;2022-12-11T00:35:38;100843.34;;;-3.75;100.00
10071;BME280;5074;53.720;10.014;2022-12-11T00:38:06;100843.38;;;-3.74;100.00
10071;BME280;5074;53.720;10.014;2022-12-11T00:40:34;100844.44;;;-3.66;100.00
10071;BME280;5074;53.720;10.014;2022-12-11T00:43:03;100854.06;;;-3.63;100.00
10071;BME280;5074;53.720;10.014;2022-12-11T00:45:34;100842.84;;;-3.59;100.00
10071;BME280;5074;53.720;10.014;2022-12-11T00:48:03;100845.41;;;-3.62;100.00
10071;BME280;5074;53.720;10.014;2022-12-11T00:50:32;100840.34;;;-3.54;100.00
10071;BME280;5074;53.720;10.014;2022-12-11T00:53:01;100842.91;;;-3.56;100.00
10071;BME280;5074;53.720;10.014;2022-12-11T00:55:29;100851.50;;;-3.61;100.00
10071;BME280;5074;53.720;10.014;2022-12-11T00:57:57;100840.88;;;-3.69;100.00
10071;BME280;5074;53.720;10.014;2022-12-11T01:00:25;100841.75;;;-3.69;100.00
10071;BME280;5074;53.720;10.014;2022-12-11T01:02:53;100841.81;;;-3.66;100.00
10071;BME280;5074;53.720;10.014;2022-12-11T01:05:21;100842.81;;;-3.60;100.00
10071;BME280;5074;53.720;10.014;2022-12-11T01:07:50;100848.03;;;-3.60;100.00
10071;BME280;5074;53.720;10.014;2022-12-11T01:10:19;100848.97;;;-3.57;100.00
10071;BME280;5074;53.720;10.014;2022-12-11T01:12:55;100849.84;;;-3.58;100.00
10071;BME280;5074;53.720;10.014;2022-12-11T01:15:25;100847.28;;;-3.56;100.00
10071;BME280;5074;53.720;10.014;2022-12-11T01:17:55;100843.75;;;-3.57;100.00
10071;BME280;5074;53.720;10.014;2022-12-11T01:20:24;100848.03;;;-3.60;100.00
10071;BME280;5074;53.720;10.014;2022-12-11T01:22:57;100850.59;;;-3.63;100.00
10071;BME280;5074;53.720;10.014;2022-12-11T01:25:26;100847.13;;;-3.62;100.00
10071;BME280;5074;53.720;10.014;2022-12-11T01:27:55;100846.31;;;-3.60;100.00
10071;BME280;5074;53.720;10.014;2022-12-11T01:30:24;100842.75;;;-3.63;100.00
10071;BME280;5074;53.720;10.014;2022-12-11T01:32:52;100854.13;;;-3.60;100.00
10071;BME280;5074;53.720;10.014;2022-12-11T01:35:20;100846.13;;;-3.68;100.00
10071;BME280;5074;53.720;10.014;2022-12-11T01:37:48;100843.44;;;-3.71;100.00
10071;BME280;5074;53.720;10.014;2022-12-11T01:40:19;100847.22;;;-3.59;100.00
10071;BME280;5074;53.720;10.014;2022-12-11T01:42:47;100848.06;;;-3.59;100.00
10071;BME280;5074;53.720;10.014;2022-12-11T01:45:32;100846.44;;;-3.55;100.00
10071;BME280;5074;53.720;10.014;2022-12-11T01:48:05;100841.13;;;-3.58;100.00
10071;BME280;5074;53.720;10.014;2022-12-11T01:50:38;100846.31;;;-3.60;100.00
10071;BME280;5074;53.720;10.014;2022-12-11T01:53:09;100850.72;;;-3.57;100.00
10071;BME280;5074;53.720;10.014;2022-12-11T01:55:40;100852.44;;;-3.59;100.00
10071;BME280;5074;53.720;10.014;2022-12-11T01:58:09;100851.59;;;-3.57;100.00
10071;BME280;5074;53.720;10.014;2022-12-11T02:00:38;100856.03;;;-3.54;100.00
10071;BME280;5074;53.720;10.014;2022-12-11T02:03:07;100848.97;;;-3.57;100.00
10071;BME280;5074;53.720;10.014;2022-12-11T02:05:35;100847.38;;;-3.52;100.00
10071;BME280;5074;53.720;10.014;2022-12-11T02:08:05;100842.09;;;-3.55;100.00
10071;BME280;5074;53.720;10.014;2022-12-11T02:10:48;100854.38;;;-3.51;100.00
10071;BME280;5074;53.720;10.014;2022-12-11T02:13:24;100848.28;;;-3.50;100.00
10071;BME280;5074;53.720;10.014;2022-12-11T02:15:59;100844.75;;;-3.52;100.00
10071;BME280;5074;53.720;10.014;2022-12-11T02:18:34;100848.28;;;-3.50;100.00
10071;BME280;5074;53.720;10.014;2022-12-11T02:21:07;100851.69;;;-3.54;100.00
10071;BME280;5074;53.720;10.014;2022-12-11T02:24:18;100847.41;;;-3.50;100.00
10071;BME280;5074;53.720;10.014;2022-12-11T02:27:07;100846.38;;;-3.57;100.00
10071;BME280;5074;53.720;10.014;2022-12-11T02:29:44;100849.88;;;-3.56;100.00
10071;BME280;5074;53.720;10.014;2022-12-11T02:32:20;100855.09;;;-3.58;100.00
10071;BME280;5074;53.720;10.014;2022-12-11T02:34:54;100847.13;;;-3.62;100.00
10071;BME280;5074;53.720;10.014;2022-12-11T02:37:26;100855.09;;;-3.58;100.00
10071;BME280;5074;53.720;10.014;2022-12-11T02:39:56;100846.28;;;-3.61;100.00
10071;BME280;5074;53.720;10.014;2022-12-11T02:42:27;100847.03;;;-3.66;100.00
10071;BME280;5074;53.720;10.014;2022-12-11T02:45:00;100848.72;;;-3.69;100.00
10071;BME280;5074;53.720;10.014;2022-12-11T02:47:30;100847.84;;;-3.70;100.00
10071;BME280;5074;53.720;10.014;2022-12-11T02:50:01;100841.59;;;-3.75;100.00
10071;BME280;5074;53.720;10.014;2022-12-11T02:52:31;100835.53;;;-3.74;100.00
10071;BME280;5074;53.720;10.014;2022-12-11T02:55:02;100831.19;;;-3.73;100.00
10071;BME280;5074;53.720;10.014;2022-12-11T02:57:36;100832.16;;;-3.70;100.00
10071;BME280;5074;53.720;10.014;2022-12-11T03:00:08;100831.41;;;-3.64;100.00
10071;BME280;5074;53.720;10.014;2022-12-11T03:02:36;100830.38;;;-3.71;100.00
10071;BME280;5074;53.720;10.014;2022-12-11T03:05:06;100844.44;;;-3.66;100.00
10071;BME280;5074;53.720;10.014;2022-12-11T03:07:37;100827.78;;;-3.71;100.00
10071;BME280;5074;53.720;10.014;2022-12-11T03:10:07;100831.31;;;-3.67;100.00
10071;BME280;5074;53.720;10.014;2022-12-11T03:12:38;100838.38;;;-3.64;100.00
10071;BME280;5074;53.720;10.014;2022-12-11T03:15:10;100836.47;;;-3.70;100.00
10071;BME280;5074;53.720;10.014;2022-12-11T03:17:46;100836.69;;;-3.62;100.00
10071;BME280;5074;53.720;10.014;2022-12-11T03:20:22;100832.13;;;-3.71;100.00
10071;BME280;5074;53.720;10.014;2022-12-11T03:23:01;100832.97;;;-3.72;100.00
10071;BME280;5074;53.720;10.014;2022-12-11T03:25:33;100833.00;;;-3.71;100.00
10071;BME280;5074;53.720;10.014;2022-12-11T03:28:09;100833.91;;;-3.69;100.00
10071;BME280;5074;53.720;10.014;2022-12-11T03:30:40;100832.19;;;-3.68;100.00
10071;BME280;5074;53.720;10.014;2022-12-11T03:33:10;100835.72;;;-3.66;100.00
10071;BME280;5074;53.720;10.014;2022-12-11T03:35:44;100827.81;;;-3.69;100.00
10071;BME280;5074;53.720;10.014;2022-12-11T03:38:17;100838.22;;;-3.71;100.00
10071;BME280;5074;53.720;10.014;2022-12-11T03:40:47;100834.78;;;-3.70;100.00
10071;BME280;5074;53.720;10.014;2022-12-11T03:43:19;100829.25;;;-3.82;100.00
10071;BME280;5074;53.720;10.014;2022-12-11T03:45:50;100838.22;;;-3.71;100.00
10071;BME280;5074;53.720;10.014;2022-12-11T03:48:20;100838.13;;;-3.75;100.00
10071;BME280;5074;53.720;10.014;2022-12-11T03:50:48;100835.44;;;-3.78;100.00
10071;BME280;5074;53.720;10.014;2022-12-11T03:53:17;100837.22;;;-3.76;100.00
10071;BME280;5074;53.720;10.014;2022-12-11T03:55:46;100827.59;;;-3.78;100.00
10071;BME280;5074;53.720;10.014;2022-12-11T03:58:15;100831.00;;;-3.81;100.00
10071;BME280;5074;53.720;10.014;2022-12-11T04:00:43;100828.38;;;-3.82;100.00
10071;BME280;5074;53.720;10.014;2022-12-11T04:03:12;100827.47;;;-3.83;100.00
10071;BME280;5074;53.720;10.014;2022-12-11T04:05:43;100822.28;;;-3.81;100.00
10071;BME280;5074;53.720;10.014;2022-12-11T04:08:12;100827.50;;;-3.81;100.00
10071;BME280;5074;53.720;10.014;2022-12-11T04:10:40;100826.59;;;-3.84;100.00
10071;BME280;5074;53.720;10.014;2022-12-11T04:13:09;100809.75;;;-3.96;100.00
10071;BME280;5074;53.720;10.014;2022-12-11T04:15:38;100821.22;;;-3.90;100.00
10071;BME280;5074;53.720;10.014;2022-12-11T04:18:06;100815.16;;;-3.87;100.00
10071;BME280;5074;53.720;10.014;2022-12-11T04:20:54;100818.78;;;-3.82;100.00
10071;BME280;5074;53.720;10.014;2022-12-11T04:23:40;100823.19;;;-3.81;100.00
10071;BME280;5074;53.720;10.014;2022-12-11T04:26:25;100826.78;;;-3.76;100.00
10071;BME280;5074;53.720;10.014;2022-12-11T04:28:53;100820.66;;;-3.76;100.00
10071;BME280;5074;53.720;10.014;2022-12-11T04:31:22;100813.56;;;-3.82;100.00
10071;BME280;5074;53.720;10.014;2022-12-11T04:33:50;100810.06;;;-3.84;100.00
10071;BME280;5074;53.720;10.014;2022-12-11T04:36:20;100819.59;;;-3.85;100.00
10071;BME280;5074;53.720;10.014;2022-12-11T04:38:48;100813.50;;;-3.85;100.00
10071;BME280;5074;53.720;10.014;2022-12-11T04:41:16;100805.59;;;-3.88;100.00
10071;BME280;5074;53.720;10.014;2022-12-11T04:43:44;100795.66;;;-4.02;100.00
10071;BME280;5074;53.720;10.014;2022-12-11T04:46:14;100810.66;;;-3.94;100.00
10071;BME280;5074;53.720;10.014;2022-12-11T04:48:43;100815.16;;;-3.87;100.00
10071;BME280;5074;53.720;10.014;2022-12-11T04:51:12;100823.22;;;-3.79;100.00
10071;BME280;5074;53.720;10.014;2022-12-11T04:53:42;100823.31;;;-3.75;100.00
10071;BME280;5074;53.720;10.014;2022-12-11T04:56:13;100816.25;;;-3.79;100.00
10071;BME280;5074;53.720;10.014;2022-12-11T04:58:42;100815.41;;;-3.78;100.00
10071;BME280;5074;53.720;10.014;2022-12-11T05:01:12;100818.16;;;-3.72;100.00
10071;BME280;5074;53.720;10.014;2022-12-11T05:03:41;100820.78;;;-3.72;100.00
10071;BME280;5074;53.720;10.014;2022-12-11T05:06:10;100808.34;;;-3.82;100.00
10071;BME280;5074;53.720;10.014;2022-12-11T05:08:40;100811.84;;;-3.81;100.00
10071;BME280;5074;53.720;10.014;2022-12-11T05:11:11;100816.16;;;-3.84;100.00
10071;BME280;5074;53.720;10.014;2022-12-11T05:13:39;100812.69;;;-3.82;100.00
10071;BME280;5074;53.720;10.014;2022-12-11T05:16:09;100810.25;;;-3.75;100.00
10071;BME280;5074;53.720;10.014;2022-12-11T05:18:38;100811.94;;;-3.78;100.00
10071;BME280;5074;53.720;10.014;2022-12-11T05:21:08;100807.63;;;-3.76;100.00
10071;BME280;5074;53.720;10.014;2022-12-11T05:23:39;100805.72;;;-3.82;100.00
10071;BME280;5074;53.720;10.014;2022-12-11T05:26:12;100812.78;;;-3.79;100.00
10071;BME280;5074;53.720;10.014;2022-12-11T05:28:40;100816.13;;;-3.85;100.00
10071;BME280;5074;53.720;10.014;2022-12-11T05:31:12;100819.59;;;-3.85;100.00
10071;BME280;5074;53.720;10.014;2022-12-11T05:33:41;100820.41;;;-3.87;100.00
10071;BME280;5074;53.720;10.014;2022-12-11T05:36:14;100816.03;;;-3.88;100.00
10071;BME280;5074;53.720;10.014;2022-12-11T05:38:43;100814.22;;;-3.91;100.00
10071;BME280;5074;53.720;10.014;2022-12-11T05:41:14;100815.09;;;-3.90;100.00
10071;BME280;5074;53.720;10.014;2022-12-11T05:43:43;100813.84;;;-4.06;100.00
10071;BME280;5074;53.720;10.014;2022-12-11T05:46:13;100819.72;;;-4.15;100.00
10071;BME280;5074;53.720;10.014;2022-12-11T05:48:43;100822.94;;;-4.25;100.00
10071;BME280;5074;53.720;10.014;2022-12-11T05:51:12;100819.97;;;-4.39;100.00
10071;BME280;5074;53.720;10.014;2022-12-11T05:53:42;100812.09;;;-4.41;100.00
10071;BME280;5074;53.720;10.014;2022-12-11T05:56:13;100813.94;;;-4.37;100.00
10071;BME280;5074;53.720;10.014;2022-12-11T05:58:43;100814.00;;;-4.33;100.00
10071;BME280;5074;53.720;10.014;2022-12-11T06:01:13;100801.69;;;-4.39;100.00
10071;BME280;5074;53.720;10.014;2022-12-11T06:03:41;100800.69;;;-4.44;100.00
10071;BME280;5074;53.720;10.014;2022-12-11T06:06:09;100801.63;;;-4.42;100.00
10071;BME280;5074;53.720;10.014;2022-12-11T06:08:37;100800.84;;;-4.38;100.00
10071;BME280;5074;53.720;10.014;2022-12-11T06:11:06;100806.78;;;-4.44;100.00
10071;BME280;5074;53.720;10.014;2022-12-11T06:13:35;100803.16;;;-4.50;100.00
10071;BME280;5074;53.720;10.014;2022-12-11T06:16:05;100800.31;;;-4.58;100.00
10071;BME280;5074;53.720;10.014;2022-12-11T06:18:35;100803.66;;;-4.64;100.00
10071;BME280;5074;53.720;10.014;2022-12-11T06:21:11;100799.66;;;-4.83;100.00
10071;BME280;5074;53.720;10.014;2022-12-11T06:23:39;100807.13;;;-4.97;100.00
10071;BME280;5074;53.720;10.014;2022-12-11T06:26:08;100813.03;;;-5.02;100.00
10071;BME280;5074;53.720;10.014;2022-12-11T06:28:38;100816.81;;;-4.91;100.00
10071;BME280;5074;53.720;10.014;2022-12-11T06:31:06;100820.81;;;-5.04;100.00
10071;BME280;5074;53.720;10.014;2022-12-11T06:33:34;100823.28;;;-5.07;100.00
10071;BME280;5074;53.720;10.014;2022-12-11T06:36:04;100823.13;;;-5.13;100.00
10071;BME280;5074;53.720;10.014;2022-12-11T06:38:33;100825.47;;;-5.22;100.00
10071;BME280;5074;53.720;10.014;2022-12-11T06:41:02;100822.63;;;-5.30;100.00
10071;BME280;5074;53.720;10.014;2022-12-11T06:43:31;100823.44;;;-5.33;100.00
10071;BME280;5074;53.720;10.014;2022-12-11T06:46:03;100820.91;;;-5.30;100.00
10071;BME280;5074;53.720;10.014;2022-12-11T06:48:32;100824.25;;;-5.34;100.00
10071;BME280;5074;53.720;10.014;2022-12-11T06:51:04;100817.22;;;-5.36;100.00
10071;BME280;5074;53.720;10.014;2022-12-11T06:53:32;100823.28;;;-5.37;100.00
10071;BME280;5074;53.720;10.014;2022-12-11T06:56:01;100822.19;;;-5.46;100.00
10071;BME280;5074;53.720;10.014;2022-12-11T06:58:29;100823.00;;;-5.47;100.00
10071;BME280;5074;53.720;10.014;2022-12-11T07:00:57;100820.34;;;-5.48;100.00
10071;BME280;5074;53.720;10.014;2022-12-11T07:03:27;100824.63;;;-5.50;100.00
10071;BME280;5074;53.720;10.014;2022-12-11T07:05:59;100837.50;;;-5.55;100.00
10071;BME280;5074;53.720;10.014;2022-12-11T07:08:27;100834.63;;;-5.64;100.00
10071;BME280;5074;53.720;10.014;2022-12-11T07:11:01;100828.50;;;-5.65;100.00
10071;BME280;5074;53.720;10.014;2022-12-11T07:13:29;100827.59;;;-5.67;100.00
10071;BME280;5074;53.720;10.014;2022-12-11T07:15:58;100833.72;;;-5.65;100.00
10071;BME280;5074;53.720;10.014;2022-12-11T07:18:29;100834.31;;;-5.73;100.00
10071;BME280;5074;53.720;10.014;2022-12-11T07:20:57;100834.22;;;-5.77;100.00
10071;BME280;5074;53.720;10.014;2022-12-11T07:23:26;100842.81;;;-5.79;100.00
10071;BME280;5074;53.720;10.014;2022-12-11T07:25:55;100845.31;;;-5.82;100.00
10071;BME280;5074;53.720;10.014;2022-12-11T07:28:23;100841.66;;;-5.89;100.00
10071;BME280;5074;53.720;10.014;2022-12-11T07:30:51;100850.22;;;-5.91;100.00
10071;BME280;5074;53.720;10.014;2022-12-11T07:33:19;100855.50;;;-5.90;100.00
10071;BME280;5074;53.720;10.014;2022-12-11T07:35:49;100860.50;;;-5.96;100.00
10071;BME280;5074;53.720;10.014;2022-12-11T07:38:17;100857.69;;;-6.02;100.00
10071;BME280;5074;53.720;10.014;2022-12-11T07:40:45;100851.38;;;-6.11;100.00
10071;BME280;5074;53.720;10.014;2022-12-11T07:43:13;100864.06;;;-6.20;100.00
10071;BME280;5074;53.720;10.014;2022-12-11T07:45:41;100856.72;;;-6.32;100.00
10071;BME280;5074;53.720;10.014;2022-12-11T07:48:09;100869.06;;;-6.26;100.00
10071;BME280;5074;53.720;10.014;2022-12-11T07:50:38;100863.09;;;-6.23;100.00
10071;BME280;5074;53.720;10.014;2022-12-11T07:53:07;100861.25;;;-6.26;100.00
10071;BME280;5074;53.720;10.014;2022-12-11T07:55:35;100869.63;;;-6.35;100.00
10071;BME280;5074;53.720;10.014;2022-12-11T07:58:03;100869.69;;;-6.33;100.00
10071;BME280;5074;53.720;10.014;2022-12-11T08:00:32;100869.69;;;-6.33;100.00
10071;BME280;5074;53.720;10.014;2022-12-11T08:02:59;100866.16;;;-6.35;100.00
10071;BME280;5074;53.720;10.014;2022-12-11T08:05:28;100871.25;;;-6.38;100.00
10071;BME280;5074;53.720;10.014;2022-12-11T08:07:56;100869.53;;;-6.38;100.00
10071;BME280;5074;53.720;10.014;2022-12-11T08:10:25;100870.56;;;-6.33;100.00
10071;BME280;5074;53.720;10.014;2022-12-11T08:12:53;100873.19;;;-6.31;100.00
10071;BME280;5074;53.720;10.014;2022-12-11T08:15:21;100864.72;;;-6.25;100.00
10071;BME280;5074;53.720;10.014;2022-12-11T08:17:49;100864.28;;;-6.14;100.00
10071;BME280;5074;53.720;10.014;2022-12-11T08:20:17;100859.19;;;-6.11;100.00
10071;BME280;5074;53.720;10.014;2022-12-11T08:22:45;100867.81;;;-6.12;100.00
10071;BME280;5074;53.720;10.014;2022-12-11T08:25:13;100864.44;;;-6.09;100.00
10071;BME280;5074;53.720;10.014;2022-12-11T08:27:43;100867.25;;;-6.03;100.00
10071;BME280;5074;53.720;10.014;2022-12-11T08:30:11;100865.47;;;-6.04;100.00
10071;BME280;5074;53.720;10.014;2022-12-11T08:32:40;100864.72;;;-6.00;100.00
10071;BME280;5074;53.720;10.014;2022-12-11T08:35:08;100864.84;;;-5.95;100.00
10071;BME280;5074;53.720;10.014;2022-12-11T08:37:36;100871.09;;;-5.90;100.00
10071;BME280;5074;53.720;10.014;2022-12-11T08:40:07;100859.28;;;-5.80;100.00
10071;BME280;5074;53.720;10.014;2022-12-11T08:42:36;100855.03;;;-5.77;100.00
10071;BME280;5074;53.720;10.014;2022-12-11T08:45:07;100859.53;;;-5.72;100.00
10071;BME280;5074;53.720;10.014;2022-12-11T08:47:35;100860.31;;;-5.75;100.00
10071;BME280;5074;53.720;10.014;2022-12-11T08:50:05;100851.03;;;-5.67;100.00
10071;BME280;5074;53.720;10.014;2022-12-11T08:52:33;100856.38;;;-5.62;100.00
10071;BME280;5074;53.720;10.014;2022-12-11T08:55:01;100857.47;;;-5.55;100.00
10071;BME280;5074;53.720;10.014;2022-12-11T08:57:29;100858.44;;;-5.52;100.00
10071;BME280;5074;53.720;10.014;2022-12-11T08:59:57;100854.25;;;-5.47;100.00
10071;BME280;5074;53.720;10.014;2022-12-11T09:02:27;100855.31;;;-5.42;100.00
10071;BME280;5074;53.720;10.014;2022-12-11T09:04:55;100856.13;;;-5.43;100.00
10071;BME280;5074;53.720;10.014;2022-12-11T09:07:23;100853.84;;;-5.32;100.00
10071;BME280;5074;53.720;10.014;2022-12-11T09:09:53;100846.72;;;-5.37;100.00
10071;BME280;5074;53.720;10.014;2022-12-11T09:12:21;100845.28;;;-5.28;100.00
10071;BME280;5074;53.720;10.014;2022-12-11T09:14:49;100838.41;;;-5.26;100.00
10071;BME280;5074;53.720;10.014;2022-12-11T09:17:17;100828.94;;;-5.22;100.00
10071;BME280;5074;53.720;10.014;2022-12-11T09:19:46;100833.38;;;-5.19;100.00
10071;BME280;5074;53.720;10.014;2022-12-11T09:22:14;100824.91;;;-5.12;100.00
10071;BME280;5074;53.720;10.014;2022-12-11T09:24:42;100829.16;;;-5.14;100.00
10071;BME280;5074;53.720;10.014;2022-12-11T09:27:11;100827.72;;;-5.04;100.00
10071;BME280;5074;53.720;10.014;2022-12-11T09:29:40;100826.69;;;-5.11;100.00
10071;BME280;5074;53.720;10.014;2022-12-11T09:32:08;100821.75;;;-5.00;100.00
10071;BME280;5074;53.720;10.014;2022-12-11T09:34:36;100818.91;;;-5.10;100.00
10071;BME280;5074;53.720;10.014;2022-12-11T09:37:05;100809.25;;;-5.12;100.00
10071;BME280;5074;53.720;10.014;2022-12-11T09:39:33;100812.38;;;-4.95;100.00
10071;BME280;5074;53.720;10.014;2022-12-11T09:42:06;100817.59;;;-4.95;100.00
10071;BME280;5074;53.720;10.014;2022-12-11T09:44:43;100820.31;;;-4.91;100.00
10071;BME280;5074;53.720;10.014;2022-12-11T09:47:18;100817.66;;;-4.92;100.00
10071;BME280;5074;53.720;10.014;2022-12-11T09:49:49;100821.31;;;-4.85;100.00
10071;BME280;5074;53.720;10.014;2022-12-11T09:52:27;100819.72;;;-4.80;100.00
10071;BME280;5074;53.720;10.014;2022-12-11T09:54:59;100818.97;;;-4.76;100.00
10071;BME280;5074;53.720;10.014;2022-12-11T09:57:40;100803.41;;;-4.73;100.00
10071;BME280;5074;53.720;10.014;2022-12-11T10:00:18;100802.78;;;-4.64;100.00
10071;BME280;5074;53.720;10.014;2022-12-11T10:02:59;100809.00;;;-4.59;100.00
10071;BME280;5074;53.720;10.014;2022-12-11T10:05:36;100811.00;;;-4.50;100.00
10071;BME280;5074;53.720;10.014;2022-12-11T10:08:15;100811.06;;;-4.47;100.00
10071;BME280;5074;53.720;10.014;2022-12-11T10:10:50;100812.06;;;-4.42;100.00
10071;BME280;5074;53.720;10.014;2022-12-11T10:13:29;100810.41;;;-4.39;100.00
10071;BME280;5074;53.720;10.014;2022-12-11T10:16:09;100809.50;;;-4.39;100.00
10071;BME280;5074;53.720;10.014;2022-12-11T10:18:39;100800.66;;;-4.46;100.00
10071;BME280;5074;53.720;10.014;2022-12-11T10:21:08;100804.47;;;-4.33;100.00
10071;BME280;5074;53.720;10.014;2022-12-11T10:23:42;100806.22;;;-4.32;100.00
10071;BME280;5074;53.720;10.014;2022-12-11T10:26:15;100802.06;;;-4.25;100.00
10071;BME280;5074;53.720;10.014;2022-12-11T10:28:43;100793.47;;;-4.21;100.00
10071;BME280;5074;53.720;10.014;2022-12-11T10:31:15;100792.66;;;-4.19;100.00
10071;BME280;5074;53.720;10.014;2022-12-11T10:33:53;100792.66;;;-4.19;100.00
10071;BME280;5074;53.720;10.014;2022-12-11T10:36:27;100789.16;;;-4.19;100.00
10071;BME280;5074;53.720;10.014;2022-12-11T10:38:57;100784.81;;;-4.20;100.00
10071;BME280;5074;53.720;10.014;2022-12-11T10:41:34;100784.94;;;-4.14;100.00
10071;BME280;5074;53.720;10.014;2022-12-11T10:44:14;100787.56;;;-4.14;100.00
10071;BME280;5074;53.720;10.014;2022-12-11T10:46:43;100784.19;;;-4.10;100.00
10071;BME280;5074;53.720;10.014;2022-12-11T10:49:24;100781.50;;;-4.13;100.00
10071;BME280;5074;53.720;10.014;2022-12-11T10:51:53;100777.22;;;-4.09;100.00
10071;BME280;5074;53.720;10.014;2022-12-11T10:54:30;100778.97;;;-4.10;100.00
10071;BME280;5074;53.720;10.014;2022-12-11T10:57:01;100781.72;;;-4.04;100.00
10071;BME280;5074;53.720;10.014;2022-12-11T10:59:34;100776.50;;;-4.04;100.00
10071;BME280;5074;53.720;10.014;2022-12-11T11:02:05;100772.34;;;-3.95;100.00
10071;BME280;5074;53.720;10.014;2022-12-11T11:04:35;100781.13;;;-3.92;100.00
10071;BME280;5074;53.720;10.014;2022-12-11T11:07:12;100771.47;;;-3.94;100.00
10071;BME280;5074;53.720;10.014;2022-12-11T11:09:42;100779.44;;;-3.90;100.00
10071;BME280;5074;53.720;10.014;2022-12-11T11:12:18;100779.47;;;-3.88;100.00
10071;BME280;5074;53.720;10.014;2022-12-11T11:14:58;100767.34;;;-3.85;100.00
10071;BME280;5074;53.720;10.014;2022-12-11T11:17:26;100767.53;;;-3.78;100.00
10071;BME280;5074;53.720;10.014;2022-12-11T11:20:12;100768.50;;;-3.73;100.00
10071;BME280;5074;53.720;10.014;2022-12-11T11:22:43;100762.44;;;-3.72;100.00
10071;BME280;5074;53.720;10.014;2022-12-11T11:25:18;100755.56;;;-3.67;100.00
10071;BME280;5074;53.720;10.014;2022-12-11T11:27:49;100758.25;;;-3.64;100.00
10071;BME280;5074;53.720;10.014;2022-12-11T11:30:20;100756.53;;;-3.63;100.00
10071;BME280;5074;53.720;10.014;2022-12-11T11:32:50;100750.38;;;-3.66;100.00
10071;BME280;5074;53.720;10.014;2022-12-11T11:35:22;100756.59;;;-3.60;100.00
10071;BME280;5074;53.720;10.014;2022-12-11T11:38:03;100752.50;;;-3.49;100.00
10071;BME280;5074;53.720;10.014;2022-12-11T11:40:36;100748.09;;;-3.50;100.00
10071;BME280;5074;53.720;10.014;2022-12-11T11:43:15;100742.00;;;-3.51;100.00
10071;BME280;5074;53.720;10.014;2022-12-11T11:45:50;100742.03;;;-3.49;100.00
10071;BME280;5074;53.720;10.014;2022-12-11T11:48:30;100745.47;;;-3.52;100.00
10071;BME280;5074;53.720;10.014;2022-12-11T11:51:07;100729.56;;;-3.62;100.00
10071;BME280;5074;53.720;10.014;2022-12-11T11:53:40;100733.94;;;-3.60;100.00
10071;BME280;5074;53.720;10.014;2022-12-11T11:56:20;100730.56;;;-3.56;100.00
10071;BME280;5074;53.720;10.014;2022-12-11T11:58:55;100721.94;;;-3.52;100.00
10071;BME280;5074;53.720;10.014;2022-12-11T12:01:25;100720.38;;;-3.43;100.00
10071;BME280;5074;53.720;10.014;2022-12-11T12:03:53;100731.72;;;-3.43;100.00
10071;BME280;5074;53.720;10.014;2022-12-11T12:06:33;100735.25;;;-3.41;100.00
10071;BME280;5074;53.720;10.014;2022-12-11T12:09:14;100726.41;;;-3.46;100.00
10071;BME280;5074;53.720;10.014;2022-12-11T12:11:48;100718.56;;;-3.47;100.00
10071;BME280;5074;53.720;10.014;2022-12-11T12:14:23;100720.41;;;-3.42;100.00
10071;BME280;5074;53.720;10.014;2022-12-11T12:17:19;100722.25;;;-3.38;100.00
10071;BME280;5074;53.720;10.014;2022-12-11T12:19:55;100713.53;;;-3.37;100.00
10071;BME280;5074;53.720;10.014;2022-12-11T12:22:45;100728.50;;;-3.29;100.00
10071;BME280;5074;53.720;10.014;2022-12-11T12:25:20;100728.66;;;-3.22;100.00
10071;BME280;5074;53.720;10.014;2022-12-11T12:27:56;100731.19;;;-3.26;100.00
10071;BME280;5074;53.720;10.014;2022-12-11T12:30:30;100720.75;;;-3.26;100.00
10071;BME280;5074;53.720;10.014;2022-12-11T12:33:17;100731.19;;;-3.26;100.00
10071;BME280;5074;53.720;10.014;2022-12-11T12:35:52;100725.03;;;-3.28;100.00
10071;BME280;5074;53.720;10.014;2022-12-11T12:38:37;100726.75;;;-3.30;100.00
10071;BME280;5074;53.720;10.014;2022-12-11T12:41:14;100723.44;;;-3.22;100.00
10071;BME280;5074;53.720;10.014;2022-12-11T12:43:59;100737.31;;;-3.24;100.00
10071;BME280;5074;53.720;10.014;2022-12-11T12:46:40;100731.34;;;-3.19;100.00
10071;BME280;5074;53.720;10.014;2022-12-11T12:49:14;100735.97;;;-3.05;100.00
10071;BME280;5074;53.720;10.014;2022-12-11T12:51:43;100732.81;;;-2.89;100.00
10071;BME280;5074;53.720;10.014;2022-12-11T12:54:15;100730.47;;;-2.72;100.00
10071;BME280;5074;53.720;10.014;2022-12-11T12:56:44;100735.91;;;-2.63;100.00
10071;BME280;5074;53.720;10.014;2022-12-11T12:59:22;100727.44;;;-2.48;100.00
10071;BME280;5074;53.720;10.014;2022-12-11T13:01:53;100732.78;;;-2.40;100.00